Terminal Aerodrome Forecast
Issued by NWS

Home | Current Version | Previous Version | Text Only | Print | Product List | Glossary On
Versions: 1 2 3 4 5 6 7 8 9 10 11 12 13
509
FTUS46 KMTR 251120
TAFSJC
TAF
KSJC 251120Z 2512/2612 28004KT P6SM OVC010
     FM251700 30004KT P6SM SCT012
     FM252000 30010KT P6SM SKC
     FM260800 31007KT P6SM OVC010=

USA.gov is the U.S. government's official web portal to all federal, state and local government web resources and services.